createdAt,value
2022-11-05T00:00:06.728Z,0.73
2022-11-05T00:02:51.984Z,0.90
2022-11-05T00:05:37.192Z,0.80
2022-11-05T00:08:23.043Z,0.60
2022-11-05T00:10:49.521Z,0.90
2022-11-05T00:13:34.706Z,1.00
2022-11-05T00:16:19.656Z,1.00
2022-11-05T00:19:07.173Z,0.90
2022-11-05T00:21:52.816Z,1.33
2022-11-05T00:24:37.839Z,1.10
2022-11-05T00:27:04.589Z,1.02
2022-11-05T00:29:30.955Z,1.20
2022-11-05T00:31:57.388Z,0.90
2022-11-05T00:34:23.761Z,0.93
2022-11-05T00:36:50.114Z,0.77
2022-11-05T00:39:16.451Z,0.70
2022-11-05T00:41:42.823Z,1.05
2022-11-05T00:44:27.681Z,0.82
2022-11-05T00:47:13.943Z,0.90
2022-11-05T00:52:25.436Z,1.35
2022-11-05T00:54:51.873Z,0.85
2022-11-05T00:57:18.177Z,0.90
2022-11-05T00:59:44.480Z,0.70
2022-11-05T01:02:11.044Z,0.88
2022-11-05T01:04:37.478Z,1.48
2022-11-05T01:07:03.870Z,1.00
2022-11-05T01:09:30.283Z,0.98
2022-11-05T01:11:56.909Z,0.77
2022-11-05T01:14:23.235Z,1.00
2022-11-05T01:16:49.724Z,1.05
2022-11-05T01:19:16.235Z,0.70
2022-11-05T01:21:44.954Z,0.68
2022-11-05T01:24:11.395Z,0.80
2022-11-05T01:26:37.747Z,0.57
2022-11-05T01:29:04.192Z,0.90
2022-11-05T01:31:30.869Z,1.30
2022-11-05T01:33:57.448Z,0.70
2022-11-05T01:36:23.755Z,0.90
2022-11-05T01:38:50.336Z,0.85
2022-11-05T01:41:16.685Z,0.60
2022-11-05T01:43:51.138Z,0.60
2022-11-05T01:46:28.793Z,0.82
2022-11-05T01:49:02.689Z,0.70
2022-11-05T01:51:29.729Z,0.50
2022-11-05T01:54:02.540Z,0.93
2022-11-05T01:56:28.865Z,0.70
2022-11-05T01:59:14.004Z,0.90
2022-11-05T02:01:40.721Z,0.80
2022-11-05T02:04:11.510Z,1.00
2022-11-05T02:06:39.409Z,0.80
2022-11-05T02:09:20.710Z,1.25
2022-11-05T02:11:47.389Z,0.70
2022-11-05T02:14:13.797Z,0.50
2022-11-05T02:16:58.957Z,0.70
2022-11-05T02:19:43.899Z,0.90
2022-11-05T02:22:22.258Z,0.70
2022-11-05T02:24:51.912Z,0.43
2022-11-05T02:27:33.604Z,0.60
2022-11-05T02:30:18.913Z,0.40
2022-11-05T02:32:48.021Z,0.30
2022-11-05T02:35:28.428Z,0.40
2022-11-05T02:38:00.267Z,0.50
2022-11-05T02:40:26.646Z,0.63
2022-11-05T02:43:02.045Z,0.70
2022-11-05T02:45:28.390Z,0.30
2022-11-05T02:48:03.749Z,1.17
2022-11-05T02:50:36.183Z,0.60
2022-11-05T02:53:04.027Z,0.88
2022-11-05T02:55:37.039Z,1.20
2022-11-05T02:58:04.117Z,0.88
2022-11-05T03:00:38.513Z,0.77
2022-11-05T03:03:14.494Z,0.50
2022-11-05T03:05:48.353Z,0.63
2022-11-05T03:08:20.333Z,0.88
2022-11-05T03:10:51.591Z,0.68
2022-11-05T03:13:22.685Z,0.50
2022-11-05T03:15:52.168Z,0.63
2022-11-05T03:18:22.032Z,0.95
2022-11-05T03:21:11.818Z,0.80
2022-11-05T03:23:40.935Z,0.70
2022-11-05T03:26:10.172Z,0.60
2022-11-05T03:28:38.492Z,0.85
2022-11-05T03:31:06.538Z,0.70
2022-11-05T03:33:34.023Z,1.08
2022-11-05T03:36:06.987Z,0.70
2022-11-05T03:38:35.576Z,0.80
2022-11-05T03:41:05.321Z,0.43
2022-11-05T03:43:34.425Z,0.63
2022-11-05T03:46:07.070Z,0.85
2022-11-05T03:48:34.574Z,0.90
2022-11-05T03:51:05.830Z,0.60
2022-11-05T03:53:34.970Z,0.30
2022-11-05T03:56:20.381Z,0.50
2022-11-05T03:58:47.776Z,0.70
2022-11-05T04:01:14.415Z,0.60
2022-11-05T04:03:40.734Z,0.60
2022-11-05T04:06:26.629Z,0.50
2022-11-05T04:09:11.597Z,0.50
2022-11-05T04:11:56.697Z,0.50
2022-11-05T04:14:23.303Z,0.60
2022-11-05T04:17:06.516Z,0.60
2022-11-05T04:19:57.536Z,0.50
2022-11-05T04:22:43.003Z,1.23
2022-11-05T04:25:09.600Z,0.55
2022-11-05T04:27:36.235Z,0.60
2022-11-05T04:30:18.356Z,0.60
2022-11-05T04:33:11.459Z,0.50
2022-11-05T04:35:39.978Z,0.52
2022-11-05T04:38:07.470Z,1.00
2022-11-05T04:40:33.978Z,0.80
2022-11-05T04:43:00.327Z,0.60
2022-11-05T04:45:28.033Z,0.40
2022-11-05T04:47:54.402Z,0.47
2022-11-05T04:50:20.747Z,0.40
2022-11-05T04:52:47.189Z,0.30
2022-11-05T04:55:13.569Z,0.80
2022-11-05T04:57:42.303Z,0.40
2022-11-05T05:00:09.282Z,0.60
2022-11-05T05:02:36.109Z,0.40
2022-11-05T05:05:02.681Z,0.43
2022-11-05T05:07:29.042Z,0.50
2022-11-05T05:09:55.363Z,0.50
2022-11-05T05:12:22.069Z,0.68
2022-11-05T05:14:49.194Z,0.70
2022-11-05T05:17:15.946Z,0.70
2022-11-05T05:20:00.646Z,0.47
2022-11-05T05:22:27.533Z,0.90
2022-11-05T05:24:54.442Z,0.75
2022-11-05T05:27:22.708Z,0.80
2022-11-05T05:29:49.083Z,0.77
2022-11-05T05:32:15.374Z,0.55
2022-11-05T05:34:41.711Z,0.50
2022-11-05T05:37:08.026Z,0.60
2022-11-05T05:39:34.326Z,0.93
2022-11-05T05:42:00.647Z,0.75
2022-11-05T05:44:27.036Z,0.40
2022-11-05T05:46:54.094Z,0.50
2022-11-05T05:49:20.447Z,0.95
2022-11-05T05:51:48.223Z,0.85
2022-11-05T05:54:14.566Z,0.75
2022-11-05T05:56:42.643Z,0.70
2022-11-05T05:59:09.039Z,0.82
2022-11-05T06:01:35.512Z,1.02
2022-11-05T06:04:02.051Z,0.80
2022-11-05T06:06:28.513Z,0.93
2022-11-05T06:08:56.130Z,0.80
2022-11-05T06:11:23.198Z,1.15
2022-11-05T06:13:49.582Z,1.00
2022-11-05T06:16:16.036Z,1.30
2022-11-05T06:18:42.449Z,1.27
2022-11-05T06:21:10.313Z,1.50
2022-11-05T06:23:37.847Z,1.38
2022-11-05T06:26:07.733Z,1.20
2022-11-05T06:28:34.474Z,1.50
2022-11-05T06:31:00.949Z,1.60
2022-11-05T06:33:27.788Z,1.95
2022-11-05T06:35:54.633Z,2.10
2022-11-05T06:38:20.979Z,1.27
2022-11-05T06:40:47.326Z,1.50
2022-11-05T06:43:14.089Z,1.75
2022-11-05T06:45:40.854Z,1.35
2022-11-05T06:48:07.251Z,1.77
2022-11-05T06:50:33.665Z,1.60
2022-11-05T06:53:01.132Z,1.77
2022-11-05T06:55:29.268Z,1.63
2022-11-05T06:57:56.079Z,1.80
2022-11-05T07:00:22.959Z,1.48
2022-11-05T07:02:49.273Z,1.58
2022-11-05T07:05:16.158Z,1.50
2022-11-05T07:07:43.208Z,1.83
2022-11-05T07:10:18.632Z,1.77
2022-11-05T07:12:45.090Z,1.73
2022-11-05T07:15:12.172Z,1.30
2022-11-05T07:17:39.952Z,1.67
2022-11-05T07:20:07.451Z,1.50
2022-11-05T07:22:34.735Z,1.38
2022-11-05T07:25:01.231Z,1.80
2022-11-05T07:27:27.635Z,1.77
2022-11-05T07:29:53.940Z,2.70
2022-11-05T07:32:20.285Z,1.80
2022-11-05T07:34:46.712Z,1.98
2022-11-05T07:37:13.358Z,2.47
2022-11-05T07:39:39.697Z,2.13
2022-11-05T07:42:06.062Z,2.42
2022-11-05T07:44:32.497Z,2.22
2022-11-05T07:46:58.895Z,1.77
2022-11-05T07:49:25.239Z,1.83
2022-11-05T07:51:51.609Z,1.50
2022-11-05T07:54:18.019Z,2.22
2022-11-05T07:56:46.429Z,2.00
2022-11-05T07:59:12.887Z,1.65
2022-11-05T08:01:42.626Z,1.90
2022-11-05T08:04:09.130Z,1.85
2022-11-05T08:06:35.521Z,1.63
2022-11-05T08:09:01.861Z,1.52
2022-11-05T08:11:28.401Z,2.22
2022-11-05T08:13:54.794Z,1.92
2022-11-05T08:16:21.202Z,1.80
2022-11-05T08:18:48.360Z,1.50
2022-11-05T08:21:14.929Z,1.95
2022-11-05T08:23:42.658Z,1.95
2022-11-05T08:26:09.979Z,1.65
2022-11-05T08:28:37.958Z,1.60
2022-11-05T08:31:04.661Z,1.75
2022-11-05T08:33:31.505Z,2.58
2022-11-05T08:36:01.779Z,2.00
2022-11-05T08:38:28.157Z,1.75
2022-11-05T08:40:55.635Z,1.50
2022-11-05T08:43:22.288Z,2.35
2022-11-05T08:45:48.813Z,1.27
2022-11-05T08:48:16.333Z,1.45
2022-11-05T08:50:43.754Z,1.65
2022-11-05T08:53:11.786Z,1.80
2022-11-05T08:55:39.985Z,1.88
2022-11-05T08:58:08.457Z,1.48
2022-11-05T09:00:35.883Z,1.40
2022-11-05T09:03:03.517Z,1.80
2022-11-05T09:05:30.931Z,1.50
2022-11-05T09:08:00.809Z,1.50
2022-11-05T09:10:28.558Z,1.40
2022-11-05T09:12:55.093Z,1.50
2022-11-05T09:15:23.340Z,1.38
2022-11-05T09:17:49.773Z,1.40
2022-11-05T09:20:16.225Z,1.60
2022-11-05T09:22:43.614Z,1.38
2022-11-05T09:25:10.354Z,1.60
2022-11-05T09:27:36.745Z,1.48
2022-11-05T09:30:03.402Z,2.13
2022-11-05T09:32:31.171Z,1.88
2022-11-05T09:34:57.737Z,1.60
2022-11-05T09:37:24.064Z,1.73
2022-11-05T09:39:50.391Z,1.50
2022-11-05T09:42:17.642Z,1.58
2022-11-05T09:44:47.636Z,1.77
2022-11-05T09:47:29.320Z,1.83
2022-11-05T09:49:57.097Z,1.20
2022-11-05T09:52:30.688Z,1.52
2022-11-05T09:54:57.702Z,1.55
2022-11-05T09:57:34.804Z,1.77
2022-11-05T10:00:03.885Z,1.15
2022-11-05T10:02:33.073Z,1.27
2022-11-05T10:05:08.240Z,1.20
2022-11-05T10:07:43.437Z,1.40
2022-11-05T10:10:18.805Z,1.13
2022-11-05T10:12:51.411Z,1.27
2022-11-05T10:15:20.782Z,1.90
2022-11-05T10:18:07.443Z,1.40
2022-11-05T10:20:37.824Z,1.80
2022-11-05T10:23:15.022Z,1.58
2022-11-05T10:25:43.623Z,1.60
2022-11-05T10:28:14.077Z,1.50
2022-11-05T10:30:40.459Z,1.83
2022-11-05T10:33:08.504Z,1.75
2022-11-05T10:35:39.468Z,1.48
2022-11-05T10:38:05.807Z,1.60
2022-11-05T10:40:38.169Z,1.80
2022-11-05T10:43:12.974Z,1.83
2022-11-05T10:45:45.442Z,1.33
2022-11-05T10:48:20.859Z,2.30
2022-11-05T10:50:47.488Z,1.98
2022-11-05T10:53:16.043Z,1.83
2022-11-05T10:55:44.900Z,1.50
2022-11-05T10:58:17.154Z,1.17
2022-11-05T11:00:44.986Z,1.17
2022-11-05T11:03:30.195Z,1.40
2022-11-05T11:06:04.171Z,1.10
2022-11-05T11:08:32.746Z,1.10
2022-11-05T11:11:00.888Z,1.35
2022-11-05T11:13:28.881Z,1.55
2022-11-05T11:16:12.981Z,2.28
2022-11-05T11:18:41.884Z,1.10
2022-11-05T11:21:19.986Z,1.02
2022-11-05T11:23:56.618Z,0.90
2022-11-05T11:26:24.094Z,1.45
2022-11-05T11:28:55.243Z,1.05
2022-11-05T11:31:23.015Z,1.23
2022-11-05T11:33:59.977Z,1.15
2022-11-05T11:36:32.005Z,1.10
2022-11-05T11:39:04.368Z,0.95
2022-11-05T11:41:39.237Z,1.02
2022-11-05T11:44:12.897Z,1.10
2022-11-05T11:46:39.477Z,1.10
2022-11-05T11:49:06.551Z,1.45
2022-11-05T11:51:49.482Z,1.20
2022-11-05T11:54:20.503Z,1.25
2022-11-05T11:56:47.644Z,1.40
2022-11-05T11:59:30.795Z,1.48
2022-11-05T12:02:26.718Z,1.40
2022-11-05T12:05:11.805Z,1.40
2022-11-05T12:07:40.944Z,1.40
2022-11-05T12:10:10.080Z,1.17
2022-11-05T12:12:55.047Z,1.67
2022-11-05T12:15:44.452Z,1.35
2022-11-05T12:18:20.327Z,1.95
2022-11-05T12:20:59.308Z,1.33
2022-11-05T12:23:25.647Z,2.00
2022-11-05T12:25:56.495Z,1.40
2022-11-05T12:28:22.849Z,1.65
2022-11-05T12:31:08.224Z,1.02
2022-11-05T12:33:46.569Z,1.50
2022-11-05T12:36:16.025Z,1.42
2022-11-05T12:38:42.380Z,1.30
2022-11-05T12:41:11.439Z,1.98
2022-11-05T12:43:56.006Z,1.60
2022-11-05T12:46:28.240Z,1.33
2022-11-05T12:49:19.358Z,1.75
2022-11-05T12:52:07.339Z,1.88
2022-11-05T12:54:36.468Z,1.30
2022-11-05T12:57:03.891Z,1.30
2022-11-05T12:59:33.054Z,1.67
2022-11-05T13:02:22.632Z,1.45
2022-11-05T13:05:01.015Z,1.20
2022-11-05T13:07:33.430Z,1.50
2022-11-05T13:10:20.001Z,1.63
2022-11-05T13:12:48.843Z,1.80
2022-11-05T13:15:36.021Z,1.38
2022-11-05T13:18:09.756Z,1.58
2022-11-05T13:20:39.749Z,0.85
2022-11-05T13:23:26.106Z,1.80
2022-11-05T13:26:00.661Z,1.20
2022-11-05T13:28:32.770Z,1.13
2022-11-05T13:31:01.416Z,1.30
2022-11-05T13:33:27.725Z,1.13
2022-11-05T13:36:16.766Z,2.10
2022-11-05T13:39:01.300Z,1.40
2022-11-05T13:41:36.761Z,1.88
2022-11-05T13:44:09.239Z,1.95
2022-11-05T13:46:47.562Z,1.63
2022-11-05T13:49:32.354Z,1.58
2022-11-05T13:52:08.986Z,1.25
2022-11-05T13:54:59.456Z,1.50
2022-11-05T13:57:25.778Z,1.88
2022-11-05T13:59:57.901Z,1.50
2022-11-05T14:02:26.262Z,1.75
2022-11-05T14:05:01.041Z,1.60
2022-11-05T14:07:29.878Z,1.30
2022-11-05T14:10:19.265Z,1.30
2022-11-05T14:12:50.521Z,1.60
2022-11-05T14:15:17.528Z,2.15
2022-11-05T14:18:13.045Z,2.28
2022-11-05T14:20:43.653Z,1.80
2022-11-05T14:23:25.440Z,1.83
2022-11-05T14:25:53.711Z,2.45
2022-11-05T14:28:35.334Z,2.00
2022-11-05T14:31:02.639Z,1.77
2022-11-05T14:33:28.960Z,1.63
2022-11-05T14:36:14.058Z,1.60
2022-11-05T14:38:50.523Z,2.13
2022-11-05T14:41:17.402Z,2.33
2022-11-05T14:43:45.266Z,1.98
2022-11-05T14:46:12.508Z,1.58
2022-11-05T14:48:50.545Z,1.60
2022-11-05T14:51:29.259Z,1.95
2022-11-05T14:54:05.998Z,2.70
2022-11-05T14:56:42.409Z,1.63
2022-11-05T14:59:20.846Z,1.40
2022-11-05T15:01:47.593Z,1.77
2022-11-05T15:04:24.880Z,1.90
2022-11-05T15:07:03.556Z,1.75
2022-11-05T15:09:48.517Z,1.80
2022-11-05T15:12:29.483Z,2.05
2022-11-05T15:14:57.857Z,1.77
2022-11-05T15:17:30.061Z,2.20
2022-11-05T15:20:08.022Z,2.28
2022-11-05T15:22:42.220Z,2.50
2022-11-05T15:25:16.744Z,2.20
2022-11-05T15:27:54.937Z,2.35
2022-11-05T15:30:22.191Z,2.40
2022-11-05T15:32:48.727Z,2.60
2022-11-05T15:35:19.561Z,2.25
2022-11-05T15:37:52.386Z,2.67
2022-11-05T15:40:22.801Z,2.60
2022-11-05T15:43:07.662Z,2.17
2022-11-05T15:45:33.959Z,2.50
2022-11-05T15:48:00.334Z,2.58
2022-11-05T15:50:26.765Z,2.20
2022-11-05T15:52:54.630Z,2.80
2022-11-05T15:55:24.040Z,2.75
2022-11-05T15:57:52.098Z,2.70
2022-11-05T16:00:23.349Z,2.58
2022-11-05T16:03:00.567Z,3.15
2022-11-05T16:05:28.159Z,2.70
2022-11-05T16:07:57.337Z,2.60
2022-11-05T16:10:26.743Z,3.08
2022-11-05T16:12:53.063Z,3.10
2022-11-05T16:15:21.537Z,2.80
2022-11-05T16:17:55.743Z,2.83
2022-11-05T16:20:25.191Z,3.00
2022-11-05T16:22:53.310Z,3.78
2022-11-05T16:25:38.536Z,2.97
2022-11-05T16:28:21.447Z,2.92
2022-11-05T16:30:56.757Z,3.03
2022-11-05T16:33:27.160Z,3.33
2022-11-05T16:35:53.466Z,2.67
2022-11-05T16:38:20.282Z,3.85
2022-11-05T16:40:46.605Z,3.20
2022-11-05T16:43:23.538Z,2.65
2022-11-05T16:45:52.757Z,3.42
2022-11-05T16:48:19.105Z,3.90
2022-11-05T16:50:46.080Z,2.58
2022-11-05T16:53:12.456Z,3.03
2022-11-05T16:55:39.792Z,3.30
2022-11-05T16:58:06.670Z,3.50
2022-11-05T17:00:33.037Z,3.42
2022-11-05T17:02:59.487Z,2.92
2022-11-05T17:05:29.865Z,3.35
2022-11-05T17:07:56.726Z,3.13
2022-11-05T17:10:24.131Z,3.15
2022-11-05T17:12:50.943Z,3.05
2022-11-05T17:15:17.268Z,2.80
2022-11-05T17:17:43.615Z,3.22
2022-11-05T17:20:13.370Z,3.00
2022-11-05T17:22:39.686Z,3.22
2022-11-05T17:25:08.414Z,3.10
2022-11-05T17:27:34.768Z,3.67
2022-11-05T17:30:01.140Z,2.58
2022-11-05T17:32:27.607Z,2.97
2022-11-05T17:34:54.632Z,3.40
2022-11-05T17:37:21.071Z,2.78
2022-11-05T17:39:47.498Z,3.08
2022-11-05T17:42:13.844Z,3.15
2022-11-05T17:44:40.163Z,3.05
2022-11-05T17:47:06.545Z,2.70
2022-11-05T17:49:33.028Z,3.03
2022-11-05T17:51:59.337Z,2.60
2022-11-05T17:54:25.761Z,3.08
2022-11-05T17:56:52.118Z,3.33
2022-11-05T17:59:18.434Z,2.70
2022-11-05T18:01:45.971Z,2.70
2022-11-05T18:04:12.551Z,2.97
2022-11-05T18:06:39.772Z,2.83
2022-11-05T18:09:07.205Z,2.47
2022-11-05T18:11:34.377Z,2.33
2022-11-05T18:14:00.880Z,3.00
2022-11-05T18:16:27.306Z,2.72
2022-11-05T18:18:53.607Z,2.58
2022-11-05T18:21:20.048Z,2.72
2022-11-05T18:23:47.449Z,2.53
2022-11-05T18:26:14.656Z,2.42
2022-11-05T18:28:41.278Z,2.63
2022-11-05T18:31:18.013Z,2.80
2022-11-05T18:33:45.023Z,2.50
2022-11-05T18:36:22.282Z,2.40
2022-11-05T18:38:48.927Z,2.50
2022-11-05T18:41:15.600Z,2.10
2022-11-05T18:43:41.940Z,2.35
2022-11-05T18:46:08.497Z,2.90
2022-11-05T18:48:35.400Z,2.50
2022-11-05T18:51:06.598Z,3.03
2022-11-05T18:53:32.995Z,2.42
2022-11-05T18:55:59.402Z,2.65
2022-11-05T18:58:26.936Z,2.20
2022-11-05T19:00:53.255Z,2.47
2022-11-05T19:03:19.632Z,2.47
2022-11-05T19:05:45.962Z,2.30
2022-11-05T19:08:12.454Z,1.90
2022-11-05T19:10:39.768Z,2.40
2022-11-05T19:13:06.145Z,2.03
2022-11-05T19:15:32.556Z,2.13
2022-11-05T19:17:59.024Z,2.35
2022-11-05T19:20:25.342Z,2.38
2022-11-05T19:22:51.722Z,2.28
2022-11-05T19:25:18.146Z,1.80
2022-11-05T19:27:44.482Z,2.30
2022-11-05T19:30:10.950Z,2.30
2022-11-05T19:32:37.344Z,2.10
2022-11-05T19:35:04.103Z,2.00
2022-11-05T19:37:30.436Z,1.88
2022-11-05T19:39:57.031Z,2.58
2022-11-05T19:42:24.084Z,1.90
2022-11-05T19:44:50.375Z,1.98
2022-11-05T19:47:16.700Z,2.22
2022-11-05T19:49:43.071Z,1.73
2022-11-05T19:52:09.464Z,2.20
2022-11-05T19:54:37.121Z,1.98
2022-11-05T19:57:03.552Z,2.40
2022-11-05T19:59:29.985Z,2.28
2022-11-05T20:01:56.410Z,3.13
2022-11-05T20:04:22.976Z,1.95
2022-11-05T20:06:49.527Z,2.10
2022-11-05T20:09:23.570Z,1.80
2022-11-05T20:11:50.838Z,2.28
2022-11-05T20:14:17.312Z,2.25
2022-11-05T20:16:45.498Z,1.63
2022-11-05T20:19:16.332Z,1.65
2022-11-05T20:21:43.167Z,2.42
2022-11-05T20:24:11.074Z,1.70
2022-11-05T20:26:38.270Z,1.98
2022-11-05T20:29:04.660Z,3.88
2022-11-05T20:31:31.124Z,2.45
2022-11-05T20:33:57.553Z,2.20
2022-11-05T20:36:24.777Z,2.45
2022-11-05T20:38:52.672Z,2.00
2022-11-05T20:41:19.330Z,1.90
2022-11-05T20:43:46.802Z,3.00
2022-11-05T20:46:14.171Z,2.35
2022-11-05T20:48:40.640Z,2.20
2022-11-05T20:51:11.049Z,2.05
2022-11-05T20:53:37.766Z,1.98
2022-11-05T20:56:07.806Z,2.00
2022-11-05T20:58:34.829Z,2.25
2022-11-05T21:01:01.212Z,1.85
2022-11-05T21:03:27.710Z,2.38
2022-11-05T21:05:56.354Z,1.77
2022-11-05T21:08:22.705Z,1.90
2022-11-05T21:10:51.402Z,2.13
2022-11-05T21:13:18.060Z,1.88
2022-11-05T21:15:55.239Z,2.08
2022-11-05T21:18:23.567Z,2.47
2022-11-05T21:20:50.233Z,2.30
2022-11-05T21:23:16.948Z,1.90
2022-11-05T21:25:43.990Z,1.77
2022-11-05T21:28:11.462Z,2.38
2022-11-05T21:30:39.226Z,1.80
2022-11-05T21:33:05.897Z,1.98
2022-11-05T21:35:32.329Z,1.73
2022-11-05T21:37:58.783Z,2.40
2022-11-05T21:40:25.160Z,2.90
2022-11-05T21:42:51.467Z,2.15
2022-11-05T21:45:17.766Z,1.88
2022-11-05T21:47:44.316Z,2.22
2022-11-05T21:50:10.676Z,2.10
2022-11-05T21:52:55.841Z,2.58
2022-11-05T21:55:40.977Z,2.03
2022-11-05T21:58:32.828Z,2.03
2022-11-05T22:01:02.527Z,1.75
2022-11-05T22:03:28.975Z,2.20
2022-11-05T22:05:58.190Z,2.63
2022-11-05T22:08:24.583Z,1.77
2022-11-05T22:10:51.013Z,2.17
2022-11-05T22:13:17.359Z,1.90
2022-11-05T22:15:43.691Z,1.90
2022-11-05T22:18:10.387Z,1.90
2022-11-05T22:20:37.681Z,2.45
2022-11-05T22:23:08.597Z,2.30
2022-11-05T22:25:37.348Z,2.00
2022-11-05T22:28:03.795Z,2.10
2022-11-05T22:30:33.242Z,2.08
2022-11-05T22:32:59.577Z,2.13
2022-11-05T22:35:26.141Z,2.13
2022-11-05T22:37:52.482Z,2.28
2022-11-05T22:40:21.145Z,2.20
2022-11-05T22:42:49.740Z,1.60
2022-11-05T22:45:16.347Z,2.50
2022-11-05T22:47:42.680Z,2.33
2022-11-05T22:50:09.143Z,2.10
2022-11-05T22:52:35.527Z,2.35
2022-11-05T22:55:03.792Z,3.08
2022-11-05T22:57:30.088Z,2.78
2022-11-05T22:59:56.612Z,2.20
2022-11-05T23:02:23.133Z,1.70
2022-11-05T23:04:51.046Z,2.33
2022-11-05T23:07:36.380Z,2.10
2022-11-05T23:10:21.364Z,2.13
2022-11-05T23:12:47.749Z,2.55
2022-11-05T23:15:34.168Z,2.45
2022-11-05T23:18:19.476Z,2.10
2022-11-05T23:21:04.640Z,3.05
2022-11-05T23:23:49.640Z,2.47
2022-11-05T23:26:34.502Z,2.65
2022-11-05T23:29:00.903Z,2.97
2022-11-05T23:31:45.823Z,2.40
2022-11-05T23:34:12.148Z,2.60
2022-11-05T23:37:00.276Z,2.17
2022-11-05T23:39:26.602Z,2.42
2022-11-05T23:42:11.898Z,2.50
2022-11-05T23:44:58.516Z,2.38
2022-11-05T23:47:43.371Z,2.38
2022-11-05T23:50:09.709Z,2.65
2022-11-05T23:52:36.026Z,3.35
2022-11-05T23:55:02.420Z,2.63
2022-11-05T23:57:28.812Z,2.95
2022-11-05T23:59:55.122Z,3.42
